Time;durP1;ratioP1;P1;durP2;ratioP2;P2;SDS_P1;SDS_P2;PMS_P1;PMS_P2;Temp;Humidity;BMP_temperature;BMP_pressure;BME280_temperature;BME280_humidity;BME280_pressure;Samples;Min_cycle;Max_cycle;Signal;HPM_P1;HPM_P2
2022/01/10 00:00:38;;;;;;;4.73;1.80;;;4.40;99.90;;;;;;4988849;28;20635;-87
2022/01/10 00:03:05;;;;;;;1.03;1.03;;;4.40;99.90;;;;;;5005344;28;20211;-87
2022/01/10 00:05:31;;;;;;;11.67;3.17;;;4.30;99.90;;;;;;4956452;28;20720;-87
2022/01/10 00:07:56;;;;;;;1.03;1.03;;;4.40;99.90;;;;;;4972614;28;20212;-86
2022/01/10 00:10:22;;;;;;;0.70;0.70;;;4.30;99.90;;;;;;4971357;28;20189;-86
2022/01/10 00:12:48;;;;;;;1.07;1.07;;;4.30;99.90;;;;;;4973445;28;20195;-87
2022/01/10 00:15:16;;;;;;;0.70;0.70;;;4.20;99.90;;;;;;4972237;28;20212;-87
2022/01/10 00:17:43;;;;;;;0.50;0.50;;;4.00;99.90;;;;;;4987444;28;20703;-87
2022/01/10 00:20:11;;;;;;;9.50;1.17;;;4.10;99.90;;;;;;4956283;28;20311;-87
2022/01/10 00:22:37;;;;;;;0.73;0.73;;;4.10;99.90;;;;;;4988466;28;20249;-87
2022/01/10 00:25:04;;;;;;;0.33;0.33;;;4.00;99.90;;;;;;4989338;28;20320;-86
2022/01/10 00:27:30;;;;;;;2.20;1.10;;;4.00;99.90;;;;;;4988131;28;20306;-86
2022/01/10 00:29:56;;;;;;;1.80;1.70;;;4.00;99.90;;;;;;4971311;28;20295;-87
2022/01/10 00:32:23;;;;;;;0.77;0.77;;;4.00;99.90;;;;;;4988241;28;20308;-86
2022/01/10 00:34:50;;;;;;;2.00;1.90;;;4.00;99.90;;;;;;4956052;28;20222;-86
2022/01/10 00:37:15;;;;;;;3.70;2.00;;;4.00;99.90;;;;;;4972620;28;20218;-87
2022/01/10 00:39:41;;;;;;;3.40;0.80;;;4.00;99.90;;;;;;4972824;28;20717;-86
2022/01/10 00:42:07;;;;;;;1.50;1.40;;;3.90;99.90;;;;;;4956021;28;20271;-87
2022/01/10 00:44:38;;;;;;;0.67;0.67;;;3.80;99.90;;;;;;4956221;28;20251;-86
2022/01/10 00:47:04;;;;;;;1.07;1.07;;;3.90;99.90;;;;;;4971837;28;20232;-86
2022/01/10 00:49:30;;;;;;;0.57;0.57;;;3.80;99.90;;;;;;4988578;28;20656;-86
2022/01/10 00:51:56;;;;;;;0.70;0.60;;;3.70;99.90;;;;;;4956233;28;20234;-87
2022/01/10 00:54:22;;;;;;;0.50;0.50;;;3.70;99.90;;;;;;4954627;28;20220;-86
2022/01/10 00:56:47;;;;;;;1.37;1.33;;;3.70;99.90;;;;;;4971259;28;20212;-86
2022/01/10 00:59:13;;;;;;;1.13;1.10;;;3.70;99.90;;;;;;4987709;28;20204;-86
2022/01/10 01:01:40;;;;;;;0.80;0.80;;;3.70;99.90;;;;;;4955565;28;20230;-86
2022/01/10 01:04:06;;;;;;;1.03;1.03;;;3.60;99.90;;;;;;4955875;28;20223;-87
2022/01/10 01:06:32;;;;;;;3.03;1.57;;;3.60;99.90;;;;;;4971829;28;20689;-86
2022/01/10 01:09:04;;;;;;;0.47;0.47;;;3.60;99.90;;;;;;4971614;28;20228;-86
2022/01/10 01:14:24;;;;;;;1.00;1.00;;;3.50;99.90;;;;;;4986815;28;20700;-87
2022/01/10 01:17:08;;;;;;;1.90;1.80;;;3.50;99.90;;;;;;4972032;28;20219;-87
2022/01/10 01:25:03;;;;;;;0.20;0.20;;;3.30;99.90;;;;;;4988965;28;20212;-87
2022/01/10 01:27:29;;;;;;;0.80;0.80;;;3.30;99.90;;;;;;4954304;28;20220;-87
2022/01/10 01:29:55;;;;;;;0.30;0.30;;;3.20;99.90;;;;;;4954896;28;20330;-87
2022/01/10 01:32:21;;;;;;;10.07;1.77;;;3.20;99.90;;;;;;4968876;28;20223;-87
2022/01/10 01:34:47;;;;;;;2.87;0.40;;;3.20;99.90;;;;;;4962358;28;20224;-87
2022/01/10 01:37:12;;;;;;;0.73;0.73;;;3.10;99.90;;;;;;4961303;28;20211;-87
2022/01/10 01:39:38;;;;;;;11.63;1.37;;;3.20;99.90;;;;;;4960412;28;20213;-87
2022/01/10 01:42:18;;;;;;;4.53;1.60;;;3.10;99.90;;;;;;4975820;28;20310;-87
2022/01/10 01:44:48;;;;;;;0.37;0.37;;;3.20;99.90;;;;;;4979086;28;20244;-87
2022/01/10 01:47:14;;;;;;;1.70;0.80;;;3.20;99.90;;;;;;4993346;28;20727;-87
2022/01/10 01:49:40;;;;;;;0.63;0.63;;;3.20;99.90;;;;;;4977981;28;20216;-87
2022/01/10 01:52:05;;;;;;;0.50;0.50;;;3.10;99.90;;;;;;4943834;28;20185;-86
2022/01/10 01:54:31;;;;;;;0.43;0.43;;;3.20;99.90;;;;;;4959625;28;20221;-86
2022/01/10 01:56:58;;;;;;;1.40;1.27;;;3.20;99.90;;;;;;4944665;28;20255;-86
2022/01/10 01:59:24;;;;;;;0.90;0.90;;;3.20;99.90;;;;;;4960420;28;20589;-87
2022/01/10 02:01:50;;;;;;;3.33;3.03;;;3.20;99.90;;;;;;4976012;28;20232;-86
2022/01/10 02:04:16;;;;;;;6.70;2.20;;;3.20;99.90;;;;;;4959288;28;20217;-87
2022/01/10 02:06:42;;;;;;;1.87;1.60;;;3.20;99.90;;;;;;4979067;28;20180;-87
2022/01/10 02:09:07;;;;;;;0.47;0.47;;;3.20;99.90;;;;;;4976333;28;20705;-87
2022/01/10 02:11:33;;;;;;;0.40;0.40;;;3.20;99.90;;;;;;4942859;28;20307;-87
2022/01/10 02:14:00;;;;;;;0.50;0.50;;;3.10;99.90;;;;;;4977826;28;20299;-87
2022/01/10 02:16:39;;;;;;;1.87;1.77;;;3.10;99.90;;;;;;4960567;28;20721;-87
2022/01/10 02:19:04;;;;;;;0.40;0.40;;;3.10;99.90;;;;;;4990948;28;20196;-87
2022/01/10 02:21:30;;;;;;;0.53;0.53;;;3.20;99.90;;;;;;4953425;28;20217;-87
2022/01/10 02:23:57;;;;;;;1.17;0.70;;;3.10;99.90;;;;;;4960244;28;20246;-87
2022/01/10 02:26:24;;;;;;;0.40;0.40;;;3.30;99.90;;;;;;4978660;28;20562;-87
2022/01/10 02:28:50;;;;;;;0.50;0.50;;;3.30;99.90;;;;;;4944021;28;20263;-87
2022/01/10 02:31:16;;;;;;;1.70;0.80;;;3.30;99.90;;;;;;4976331;28;20185;-87
2022/01/10 02:33:42;;;;;;;0.57;0.40;;;3.20;99.90;;;;;;4942203;28;20189;-87
2022/01/10 02:36:21;;;;;;;1.70;1.60;;;3.30;99.90;;;;;;4960615;28;20255;-87
2022/01/10 02:38:50;;;;;;;6.17;1.03;;;3.40;99.90;;;;;;4981330;28;20223;-87
2022/01/10 02:41:24;;;;;;;0.80;0.37;;;3.40;99.90;;;;;;4990035;28;20208;-87
2022/01/10 02:43:52;;;;;;;1.87;1.77;;;3.50;99.90;;;;;;4973968;28;20226;-87
2022/01/10 02:46:18;;;;;;;1.53;1.43;;;3.60;99.90;;;;;;4990440;28;20251;-86
2022/01/10 02:48:44;;;;;;;2.07;1.97;;;3.50;99.90;;;;;;4990284;28;20188;-87
2022/01/10 02:51:10;;;;;;;4.73;0.80;;;3.50;99.90;;;;;;4973084;28;20211;-87
2022/01/10 02:53:36;;;;;;;1.33;1.30;;;3.50;99.90;;;;;;4973999;28;20233;-86
2022/01/10 02:56:03;;;;;;;0.87;0.87;;;3.40;99.90;;;;;;4989860;28;20270;-87
2022/01/10 02:58:29;;;;;;;5.03;1.90;;;3.40;99.90;;;;;;4990190;28;20187;-87
2022/01/10 03:00:55;;;;;;;1.17;1.17;;;3.50;99.90;;;;;;4974607;28;20196;-86
2022/01/10 03:03:20;;;;;;;0.33;0.33;;;3.50;99.90;;;;;;4973238;28;20230;-87
2022/01/10 03:05:46;;;;;;;2.17;0.73;;;3.50;99.90;;;;;;4957694;28;20302;-86
2022/01/10 03:08:12;;;;;;;0.77;0.77;;;3.50;99.90;;;;;;4973815;28;20715;-87
2022/01/10 03:10:37;;;;;;;2.40;2.30;;;3.70;99.90;;;;;;4973296;28;20215;-87
2022/01/10 03:13:03;;;;;;;0.83;0.80;;;3.80;99.90;;;;;;4958687;28;20192;-87
2022/01/10 03:15:29;;;;;;;11.80;0.77;;;3.90;99.90;;;;;;4989751;28;20234;-87
2022/01/10 03:17:55;;;;;;;0.70;0.70;;;4.00;99.90;;;;;;4974100;28;20592;-87
2022/01/10 03:20:24;;;;;;;2.67;0.97;;;3.80;99.90;;;;;;4957599;28;20224;-87
2022/01/10 03:22:51;;;;;;;0.93;0.93;;;3.80;99.90;;;;;;4989854;28;20208;-87
2022/01/10 03:25:17;;;;;;;1.67;1.57;;;3.80;99.90;;;;;;4989487;28;20594;-87
2022/01/10 03:27:44;;;;;;;0.57;0.57;;;3.90;99.90;;;;;;5000753;28;20191;-87
2022/01/10 03:30:10;;;;;;;0.97;0.97;;;3.90;99.90;;;;;;5005630;28;20211;-87
2022/01/10 03:32:37;;;;;;;0.90;0.90;;;3.90;99.90;;;;;;4957520;28;20695;-87
2022/01/10 03:35:04;;;;;;;1.27;1.17;;;3.80;99.90;;;;;;4989658;28;20677;-86
2022/01/10 03:37:30;;;;;;;12.10;1.47;;;3.70;99.90;;;;;;4973213;28;20672;-87
2022/01/10 03:39:56;;;;;;;0.67;0.67;;;3.60;99.90;;;;;;4974404;28;20181;-87
2022/01/10 03:42:22;;;;;;;2.00;0.90;;;3.50;99.90;;;;;;4989685;28;20674;-87
2022/01/10 03:44:48;;;;;;;2.10;1.50;;;3.50;99.90;;;;;;4973336;28;20693;-87
2022/01/10 03:47:16;;;;;;;0.90;0.90;;;3.50;99.90;;;;;;4973084;28;20251;-87
2022/01/10 03:49:42;;;;;;;1.00;1.00;;;3.40;99.90;;;;;;5005339;28;20212;-87
2022/01/10 03:52:08;;;;;;;1.67;1.57;;;3.40;99.90;;;;;;4988855;28;20185;-86
2022/01/10 03:54:33;;;;;;;1.53;1.10;;;3.30;99.90;;;;;;4956555;28;20365;-86
2022/01/10 03:56:59;;;;;;;1.20;1.20;;;3.20;99.90;;;;;;4973377;28;20224;-87
2022/01/10 03:59:25;;;;;;;0.40;0.40;;;3.20;99.90;;;;;;4973124;28;20223;-87
2022/01/10 04:01:52;;;;;;;11.77;1.00;;;3.20;99.90;;;;;;4972899;28;20579;-87
2022/01/10 04:04:18;;;;;;;0.47;0.47;;;3.10;99.90;;;;;;4988846;28;20204;-87
2022/01/10 04:06:44;;;;;;;1.63;1.53;;;3.10;99.90;;;;;;4973692;28;20195;-87
2022/01/10 04:09:09;;;;;;;0.77;0.70;;;3.10;99.90;;;;;;4989171;28;20211;-87
2022/01/10 04:11:36;;;;;;;1.77;1.00;;;3.00;99.90;;;;;;4989122;28;20350;-87
2022/01/10 04:14:02;;;;;;;1.03;1.03;;;3.10;99.90;;;;;;4988802;28;20208;-87
2022/01/10 04:16:27;;;;;;;1.13;1.03;;;3.00;99.90;;;;;;4956078;28;20315;-87
2022/01/10 04:18:53;;;;;;;1.37;0.93;;;3.00;99.90;;;;;;4989419;28;20275;-87
2022/01/10 04:21:19;;;;;;;1.57;1.47;;;3.00;99.90;;;;;;4972750;28;20572;-87
2022/01/10 04:23:45;;;;;;;1.77;1.47;;;3.00;99.90;;;;;;4970646;28;20587;-86
2022/01/10 04:26:11;;;;;;;1.23;1.23;;;2.90;99.90;;;;;;4970494;28;20212;-88
2022/01/10 04:28:36;;;;;;;0.63;0.63;;;2.90;99.90;;;;;;4948140;28;20212;-86
2022/01/10 04:31:04;;;;;;;0.83;0.83;;;2.80;99.90;;;;;;4979565;28;20208;-87
2022/01/10 04:33:30;;;;;;;1.30;1.13;;;2.80;99.90;;;;;;4978941;28;20605;-87
2022/01/10 04:35:57;;;;;;;3.40;1.40;;;2.70;99.90;;;;;;4947476;28;20219;-87
2022/01/10 04:38:24;;;;;;;0.77;0.77;;;2.70;99.90;;;;;;4961491;28;20212;-87
2022/01/10 04:40:51;;;;;;;3.30;1.53;;;2.70;99.90;;;;;;4978355;28;20211;-87
2022/01/10 04:43:16;;;;;;;2.63;2.10;;;2.70;99.90;;;;;;4961059;28;20580;-86
2022/01/10 04:45:42;;;;;;;2.70;1.30;;;2.70;99.90;;;;;;4962052;28;20310;-87
2022/01/10 04:48:08;;;;;;;1.30;1.20;;;2.60;99.90;;;;;;4962338;28;20236;-87
2022/01/10 04:53:09;;;;;;;0.83;0.83;;;2.40;99.90;;;;;;4978485;28;20611;-87
2022/01/10 04:55:35;;;;;;;1.50;1.40;;;2.10;99.90;;;;;;4947127;28;20227;-87
2022/01/10 04:58:01;;;;;;;0.63;0.63;;;1.90;99.90;;;;;;4962043;28;20230;-87
2022/01/10 05:00:27;;;;;;;1.13;1.13;;;1.70;99.90;;;;;;4963491;28;20204;-87
2022/01/10 05:02:54;;;;;;;3.47;1.87;;;1.60;99.90;;;;;;4970134;28;20215;-87
2022/01/10 05:05:19;;;;;;;0.50;0.50;;;1.30;99.90;;;;;;4977623;28;20766;-87
2022/01/10 05:07:45;;;;;;;0.73;0.73;;;1.00;99.90;;;;;;4943330;28;20216;-87
2022/01/10 05:10:11;;;;;;;1.20;1.20;;;0.90;99.90;;;;;;4945817;28;20290;-87
2022/01/10 05:12:37;;;;;;;2.47;0.77;;;0.80;99.90;;;;;;4977789;28;20217;-87
2022/01/10 05:15:04;;;;;;;0.90;0.90;;;0.80;99.90;;;;;;4960821;28;20775;-87
2022/01/10 05:17:30;;;;;;;1.10;1.10;;;0.80;99.90;;;;;;4976896;28;20216;-87
2022/01/10 05:19:55;;;;;;;1.03;0.97;;;0.60;99.90;;;;;;4954907;28;20204;-87
2022/01/10 05:22:21;;;;;;;4.40;0.80;;;0.90;99.90;;;;;;4963118;28;20180;-87
2022/01/10 05:24:47;;;;;;;1.27;1.17;;;1.30;99.90;;;;;;4977333;28;20204;-87
2022/01/10 05:27:13;;;;;;;1.20;0.87;;;1.50;99.90;;;;;;4960839;28;20271;-87
2022/01/10 05:29:38;;;;;;;0.87;0.70;;;1.60;99.90;;;;;;4944939;28;20227;-87
2022/01/10 05:32:04;;;;;;;1.37;1.37;;;1.70;99.90;;;;;;4945589;28;20692;-87
2022/01/10 05:34:30;;;;;;;4.50;1.93;;;1.70;99.90;;;;;;4960547;28;20192;-86
2022/01/10 05:36:56;;;;;;;1.67;1.00;;;1.70;99.90;;;;;;4961286;28;20196;-87
2022/01/10 05:39:22;;;;;;;0.57;0.57;;;1.80;99.90;;;;;;4978113;28;20212;-85
2022/01/10 05:41:48;;;;;;;1.40;1.40;;;1.80;99.90;;;;;;4960677;28;20212;-86
2022/01/10 05:44:13;;;;;;;1.23;1.23;;;1.90;99.90;;;;;;4944389;28;20579;-86
2022/01/10 05:46:42;;;;;;;0.70;0.70;;;1.90;99.90;;;;;;4976990;28;20227;-85
2022/01/10 05:49:08;;;;;;;2.97;1.83;;;2.00;99.90;;;;;;4976074;28;20271;-85
2022/01/10 05:51:36;;;;;;;0.87;0.87;;;1.90;99.90;;;;;;4961079;28;20219;-86
2022/01/10 05:54:04;;;;;;;1.20;1.20;;;2.00;99.90;;;;;;4942596;28;20300;-85
2022/01/10 05:56:30;;;;;;;0.87;0.87;;;1.90;99.90;;;;;;4984003;28;20238;-85
2022/01/10 05:58:56;;;;;;;1.57;1.47;;;2.00;99.90;;;;;;4959989;28;20227;-85
2022/01/10 06:01:22;;;;;;;6.07;1.63;;;2.00;99.90;;;;;;4976209;28;20579;-86
2022/01/10 06:03:48;;;;;;;1.40;1.17;;;2.00;99.90;;;;;;4976498;28;20207;-85
2022/01/10 06:06:14;;;;;;;2.50;2.30;;;2.00;99.90;;;;;;4959593;28;20218;-85
2022/01/10 06:08:39;;;;;;;5.63;3.73;;;2.00;99.90;;;;;;4976858;28;20208;-85
2022/01/10 06:11:05;;;;;;;3.70;2.30;;;2.00;99.90;;;;;;4961133;28;20258;-85
2022/01/10 06:13:31;;;;;;;2.03;1.93;;;2.00;99.90;;;;;;4942974;28;20203;-86
2022/01/10 06:15:57;;;;;;;3.00;2.67;;;2.10;99.90;;;;;;4945370;28;20184;-86
2022/01/10 06:18:23;;;;;;;7.97;4.43;;;2.00;99.90;;;;;;4975390;28;20217;-84
2022/01/10 06:20:49;;;;;;;5.37;4.17;;;2.00;99.90;;;;;;4961114;28;20930;-84
2022/01/10 06:23:15;;;;;;;2.50;2.40;;;2.00;99.90;;;;;;4975683;28;20621;-85
2022/01/10 06:25:41;;;;;;;3.50;3.23;;;2.00;99.90;;;;;;4977587;28;20248;-85
2022/01/10 06:28:08;;;;;;;6.47;5.97;;;2.00;99.90;;;;;;4946322;28;20223;-88
2022/01/10 06:30:34;;;;;;;2.07;1.87;;;2.00;99.90;;;;;;4944755;28;20230;-89
2022/01/10 06:33:00;;;;;;;7.93;5.50;;;2.00;99.90;;;;;;4944188;28;20763;-89
2022/01/10 06:35:26;;;;;;;3.50;3.30;;;2.10;99.90;;;;;;4957893;28;20220;-89
2022/01/10 06:37:52;;;;;;;3.40;3.20;;;2.10;99.90;;;;;;4961615;28;20216;-90
2022/01/10 06:40:20;;;;;;;3.00;2.53;;;2.10;99.90;;;;;;4958657;28;20193;-90
2022/01/10 06:42:46;;;;;;;2.57;2.37;;;2.10;99.90;;;;;;4971205;28;20196;-89
2022/01/10 06:45:13;;;;;;;10.13;6.27;;;2.10;99.90;;;;;;4959935;28;20236;-89
2022/01/10 06:47:39;;;;;;;2.87;1.67;;;2.00;99.90;;;;;;4971725;28;20243;-89
2022/01/10 06:50:06;;;;;;;16.57;3.07;;;2.10;99.90;;;;;;4977441;28;20219;-89
2022/01/10 06:52:32;;;;;;;3.10;2.40;;;2.00;99.90;;;;;;4977734;28;20227;-90
2022/01/10 06:54:58;;;;;;;2.67;2.57;;;2.00;99.90;;;;;;4947693;28;20774;-90
2022/01/10 06:57:25;;;;;;;2.43;2.23;;;2.00;99.90;;;;;;4975419;28;20258;-89
2022/01/10 06:59:51;;;;;;;2.70;2.50;;;1.90;99.90;;;;;;4974691;28;20696;-88
2022/01/10 07:02:17;;;;;;;5.00;2.60;;;1.90;99.90;;;;;;4960730;28;20569;-88
2022/01/10 07:04:43;;;;;;;5.77;2.80;;;1.90;99.90;;;;;;4959774;28;20212;-88
2022/01/10 07:07:09;;;;;;;1.23;1.00;;;1.90;99.90;;;;;;4974671;28;20197;-88
2022/01/10 07:09:34;;;;;;;2.23;2.13;;;1.90;99.90;;;;;;4960994;28;20247;-87
2022/01/10 07:12:01;;;;;;;1.63;1.53;;;1.90;99.90;;;;;;4968555;28;20245;-87
2022/01/10 07:14:29;;;;;;;5.07;3.10;;;1.80;99.90;;;;;;4974513;28;20216;-89
2022/01/10 07:16:54;;;;;;;3.43;3.23;;;1.80;99.90;;;;;;4959928;28;20212;-88
2022/01/10 07:19:22;;;;;;;2.30;2.20;;;1.80;99.90;;;;;;4975938;28;20192;-88
2022/01/10 07:21:48;;;;;;;5.37;3.83;;;1.70;99.90;;;;;;4961419;28;20188;-89
2022/01/10 07:24:15;;;;;;;3.20;2.27;;;1.60;99.90;;;;;;4959344;28;20245;-88
2022/01/10 07:26:41;;;;;;;2.73;2.63;;;1.50;99.90;;;;;;4976566;28;20685;-89
2022/01/10 07:29:08;;;;;;;1.30;1.20;;;1.40;99.90;;;;;;4979692;28;21296;-89
2022/01/10 07:31:35;;;;;;;0.90;0.90;;;1.30;99.90;;;;;;4963254;28;20221;-88
2022/01/10 07:34:01;;;;;;;7.80;2.43;;;1.20;99.90;;;;;;4962907;28;20280;-88
2022/01/10 07:36:27;;;;;;;1.47;1.43;;;1.10;99.90;;;;;;4980249;28;20220;-90
2022/01/10 07:38:52;;;;;;;0.70;0.70;;;1.00;99.90;;;;;;4948104;28;20239;-88
2022/01/10 07:41:18;;;;;;;1.03;0.93;;;1.00;99.90;;;;;;4963335;28;20219;-88
2022/01/10 07:43:44;;;;;;;2.00;1.33;;;1.00;99.90;;;;;;4956255;28;21165;-88
2022/01/10 07:46:11;;;;;;;2.00;1.90;;;0.90;99.90;;;;;;4948411;28;20240;-88
2022/01/10 07:48:40;;;;;;;1.23;1.23;;;0.80;99.90;;;;;;4946563;28;21433;-89
2022/01/10 07:51:09;;;;;;;1.47;1.43;;;0.70;99.90;;;;;;4979825;28;20219;-88
2022/01/10 07:53:36;;;;;;;1.23;1.17;;;0.70;99.90;;;;;;4947838;28;20819;-88
2022/01/10 07:56:03;;;;;;;13.50;2.50;;;0.60;99.90;;;;;;4978694;28;20272;-88
2022/01/10 07:58:29;;;;;;;1.93;1.73;;;0.60;99.90;;;;;;4964875;28;20588;-88
2022/01/10 08:00:55;;;;;;;3.33;2.43;;;0.70;99.90;;;;;;4963038;28;20263;-88
2022/01/10 08:03:21;;;;;;;1.60;1.50;;;0.80;99.90;;;;;;4980305;28;20216;-88
2022/01/10 08:05:47;;;;;;;2.60;2.50;;;0.90;99.90;;;;;;4964120;28;20252;-88
2022/01/10 08:08:13;;;;;;;0.83;0.80;;;0.90;99.90;;;;;;4963374;28;20221;-88
2022/01/10 08:10:38;;;;;;;2.67;1.13;;;0.80;99.90;;;;;;4962949;28;20238;-88
2022/01/10 08:13:04;;;;;;;2.67;1.53;;;0.80;99.90;;;;;;4947489;28;20215;-88
2022/01/10 08:15:30;;;;;;;1.80;1.70;;;0.80;99.90;;;;;;4963524;28;20216;-88
2022/01/10 08:17:57;;;;;;;1.53;1.43;;;0.80;99.90;;;;;;4960589;28;20291;-88
2022/01/10 08:20:23;;;;;;;1.87;1.50;;;0.80;99.90;;;;;;4962835;28;20205;-88
2022/01/10 08:22:49;;;;;;;2.43;1.93;;;0.90;99.90;;;;;;4971763;28;20212;-89
2022/01/10 08:25:16;;;;;;;1.97;1.77;;;0.90;99.90;;;;;;4978321;28;20708;-89
2022/01/10 08:27:41;;;;;;;0.80;0.80;;;0.80;99.90;;;;;;4980189;28;20216;-89
2022/01/10 08:30:08;;;;;;;2.57;1.67;;;0.80;99.90;;;;;;4977285;28;21141;-88
2022/01/10 08:32:34;;;;;;;1.03;0.97;;;0.90;99.90;;;;;;4996332;28;20223;-88
2022/01/10 08:35:00;;;;;;;3.37;3.17;;;0.90;99.90;;;;;;4946652;28;20702;-85
2022/01/10 08:37:26;;;;;;;2.13;1.80;;;0.80;99.90;;;;;;4962454;28;20200;-88
2022/01/10 08:39:52;;;;;;;2.53;2.33;;;0.80;99.90;;;;;;4963466;28;20556;-89
2022/01/10 08:42:19;;;;;;;1.43;1.33;;;0.80;99.90;;;;;;4961245;28;20247;-87
2022/01/10 08:44:45;;;;;;;2.20;2.03;;;0.80;99.90;;;;;;4992743;28;20226;-88
2022/01/10 08:47:12;;;;;;;2.33;2.23;;;0.90;99.90;;;;;;4975785;28;20228;-88
2022/01/10 08:49:38;;;;;;;1.67;1.57;;;1.00;99.90;;;;;;4978567;28;20720;-88
2022/01/10 08:52:04;;;;;;;2.67;2.47;;;1.00;99.90;;;;;;4979193;28;20600;-88
2022/01/10 08:54:31;;;;;;;1.07;1.07;;;0.90;99.90;;;;;;4954435;28;20279;-88
2022/01/10 08:56:57;;;;;;;1.20;0.93;;;1.00;99.90;;;;;;4980896;28;20227;-88
2022/01/10 08:59:23;;;;;;;2.10;1.60;;;1.10;99.90;;;;;;4962115;28;20220;-89
2022/01/10 09:01:49;;;;;;;2.27;1.43;;;1.10;99.90;;;;;;4945798;28;20215;-89
2022/01/10 09:04:16;;;;;;;2.10;1.80;;;1.30;99.90;;;;;;4962493;28;20216;-88
2022/01/10 09:06:46;;;;;;;2.63;2.43;;;1.30;99.90;;;;;;4981066;28;20237;-88
2022/01/10 09:09:13;;;;;;;2.00;1.90;;;1.40;99.90;;;;;;4970633;28;20208;-88
2022/01/10 09:11:40;;;;;;;2.53;2.33;;;1.20;99.90;;;;;;4978548;28;20214;-88
2022/01/10 09:14:06;;;;;;;2.53;2.33;;;1.30;99.90;;;;;;4975687;28;20216;-89
2022/01/10 09:16:33;;;;;;;2.20;2.10;;;1.30;99.90;;;;;;4976514;28;20964;-89
2022/01/10 09:18:58;;;;;;;2.73;2.57;;;1.40;99.90;;;;;;4961620;28;20214;-89
2022/01/10 09:21:25;;;;;;;2.57;1.17;;;1.50;99.90;;;;;;4954091;28;20230;-89
2022/01/10 09:23:50;;;;;;;2.17;2.07;;;1.60;99.90;;;;;;4962242;28;20315;-88
2022/01/10 09:26:16;;;;;;;4.67;3.70;;;1.60;99.90;;;;;;4961862;28;20303;-89
2022/01/10 09:28:43;;;;;;;3.13;2.03;;;1.60;99.90;;;;;;4977630;28;20699;-88
2022/01/10 09:31:10;;;;;;;1.73;1.60;;;1.70;99.90;;;;;;4962351;28;20271;-88
2022/01/10 09:33:36;;;;;;;2.50;2.30;;;1.70;99.90;;;;;;4977066;28;20282;-89
2022/01/10 09:36:04;;;;;;;3.53;3.27;;;1.90;99.90;;;;;;4978296;28;20231;-87
2022/01/10 09:38:29;;;;;;;1.83;1.73;;;2.10;99.90;;;;;;4990867;28;20254;-88
2022/01/10 09:40:55;;;;;;;1.97;1.63;;;2.30;99.90;;;;;;4945238;28;20335;-88
2022/01/10 09:43:21;;;;;;;4.93;4.27;;;2.50;99.90;;;;;;4944739;28;20198;-87
2022/01/10 09:45:48;;;;;;;3.70;3.10;;;2.50;99.90;;;;;;4946205;28;20216;-88
2022/01/10 09:48:14;;;;;;;6.33;4.60;;;2.60;99.90;;;;;;4976148;28;20913;-87
2022/01/10 09:50:41;;;;;;;3.93;3.63;;;2.60;99.90;;;;;;4977384;28;20308;-90
2022/01/10 09:53:07;;;;;;;3.83;3.47;;;2.60;99.90;;;;;;4962677;28;20311;-91
2022/01/10 09:55:34;;;;;;;3.47;2.57;;;2.80;99.90;;;;;;4979361;28;20271;-93
2022/01/10 09:58:00;;;;;;;2.67;2.47;;;2.90;99.90;;;;;;4954550;28;20223;-91
2022/01/10 10:00:26;;;;;;;2.90;2.50;;;3.00;99.90;;;;;;4961158;28;20801;-90
2022/01/10 10:02:52;;;;;;;2.47;2.37;;;2.90;99.90;;;;;;4977849;28;20299;-92
2022/01/10 10:05:19;;;;;;;5.40;5.10;;;3.00;99.90;;;;;;4960709;28;20224;-90
2022/01/10 10:07:45;;;;;;;3.47;3.03;;;3.00;99.90;;;;;;4977039;28;20220;-89
2022/01/10 10:10:13;;;;;;;3.13;2.57;;;3.10;99.90;;;;;;4977306;28;20649;-89
2022/01/10 10:12:44;;;;;;;4.67;4.27;;;3.00;99.90;;;;;;4970829;28;21093;-91
2022/01/10 10:15:12;;;;;;;4.50;4.10;;;2.90;99.90;;;;;;4986855;28;20274;-90
2022/01/10 10:17:40;;;;;;;4.83;4.53;;;2.90;99.90;;;;;;4969179;28;20200;-91
2022/01/10 10:20:11;;;;;;;3.13;2.87;;;3.00;99.90;;;;;;4986960;28;20274;-89
2022/01/10 10:22:40;;;;;;;3.97;3.77;;;3.00;99.90;;;;;;4986915;28;20235;-90
2022/01/10 10:25:08;;;;;;;8.83;4.70;;;3.10;99.90;;;;;;4987488;28;20711;-89
2022/01/10 10:27:39;;;;;;;7.00;3.40;;;3.10;99.90;;;;;;4986567;28;20212;-89
2022/01/10 10:30:12;;;;;;;5.87;5.17;;;3.10;99.90;;;;;;5002728;28;20224;-90
2022/01/10 10:32:38;;;;;;;4.30;3.27;;;3.10;99.90;;;;;;4986693;28;20228;-90
2022/01/10 10:35:06;;;;;;;4.27;3.80;;;3.10;99.90;;;;;;4970841;28;20215;-89
2022/01/10 10:37:37;;;;;;;7.90;6.37;;;3.30;99.90;;;;;;4986750;28;20199;-90
2022/01/10 10:40:05;;;;;;;7.10;4.87;;;3.30;99.90;;;;;;4987008;28;20207;-89
2022/01/10 10:42:32;;;;;;;11.80;7.37;;;3.50;99.90;;;;;;4970125;28;20213;-89
2022/01/10 10:45:02;;;;;;;5.67;3.20;;;3.60;99.90;;;;;;4986561;28;20224;-90
2022/01/10 10:47:28;;;;;;;7.73;4.83;;;3.70;99.90;;;;;;4970822;28;20224;-90
2022/01/10 10:50:01;;;;;;;9.03;5.73;;;3.80;99.90;;;;;;4954188;28;20798;-90
2022/01/10 10:52:34;;;;;;;4.33;4.00;;;3.80;99.90;;;;;;4970330;28;20645;-91
2022/01/10 10:55:18;;;;;;;6.13;5.53;;;3.90;99.90;;;;;;4987481;28;20223;-91
2022/01/10 10:57:45;;;;;;;7.43;6.30;;;4.10;99.90;;;;;;4970510;28;20231;-90
2022/01/10 11:00:15;;;;;;;8.60;6.80;;;4.20;99.90;;;;;;4955466;28;20282;-90
2022/01/10 11:02:41;;;;;;;10.07;7.03;;;4.40;99.90;;;;;;4990744;28;20258;-90
2022/01/10 11:05:08;;;;;;;10.07;9.03;;;4.60;99.90;;;;;;4974001;28;20249;-90
2022/01/10 11:07:35;;;;;;;21.83;14.27;;;4.80;99.90;;;;;;4990519;28;20259;-89
2022/01/10 11:10:04;;;;;;;5.57;5.00;;;4.80;99.90;;;;;;4973700;28;20210;-92
2022/01/10 11:12:32;;;;;;;14.70;11.23;;;4.90;99.90;;;;;;4989873;28;20311;-90
2022/01/10 11:14:59;;;;;;;13.50;5.00;;;4.90;99.90;;;;;;5006996;28;20243;-91
2022/01/10 11:17:26;;;;;;;7.23;6.43;;;5.00;99.90;;;;;;5006953;28;20250;-91
2022/01/10 11:20:08;;;;;;;7.57;6.30;;;5.10;99.90;;;;;;4973935;28;20592;-87
2022/01/10 11:22:35;;;;;;;11.07;7.67;;;5.10;99.90;;;;;;4990620;28;20257;-89
2022/01/10 11:25:03;;;;;;;23.43;10.03;;;5.10;99.90;;;;;;4990773;28;20269;-88
2022/01/10 11:27:32;;;;;;;16.83;13.10;;;5.20;99.90;;;;;;4958307;28;20215;-89
2022/01/10 11:29:59;;;;;;;21.83;13.70;;;5.30;99.90;;;;;;5005932;28;20236;-89
2022/01/10 11:32:56;;;;;;;10.00;6.10;;;5.20;99.90;;;;;;4974245;28;20254;-90
2022/01/10 11:35:26;;;;;;;6.17;5.03;;;5.40;99.90;;;;;;4990113;28;20219;-89
2022/01/10 11:37:52;;;;;;;9.90;9.07;;;5.60;99.90;;;;;;4990876;28;20212;-90
2022/01/10 11:40:19;;;;;;;10.90;9.63;;;5.70;99.90;;;;;;4989782;28;20319;-89
2022/01/10 11:42:52;;;;;;;7.47;6.77;;;5.70;99.90;;;;;;4974903;28;20243;-90
2022/01/10 11:45:18;;;;;;;9.63;8.97;;;5.70;99.90;;;;;;4990083;28;20223;-90
2022/01/10 11:48:04;;;;;;;9.73;7.77;;;5.80;99.90;;;;;;4957294;28;20235;-89
2022/01/10 11:50:30;;;;;;;10.03;7.57;;;6.00;99.90;;;;;;5005761;28;20235;-91
2022/01/10 11:52:59;;;;;;;7.67;5.70;;;5.90;99.90;;;;;;4973612;28;20227;-90
2022/01/10 11:55:54;;;;;;;8.03;7.00;;;6.00;99.90;;;;;;5006034;28;20203;-89
2022/01/10 11:58:24;;;;;;;8.27;7.43;;;6.00;99.90;;;;;;4985017;28;20565;-89
2022/01/10 12:01:03;;;;;;;5.57;4.97;;;6.20;99.90;;;;;;4990777;28;20637;-90
2022/01/10 12:03:30;;;;;;;6.10;5.50;;;6.40;99.90;;;;;;4988984;28;20688;-89
2022/01/10 12:05:56;;;;;;;11.97;9.97;;;6.50;99.90;;;;;;4989346;28;20259;-89
2022/01/10 12:08:22;;;;;;;9.73;8.73;;;6.60;99.90;;;;;;4989199;28;20248;-89
2022/01/10 12:10:49;;;;;;;8.20;7.50;;;6.70;99.90;;;;;;4957379;28;20215;-90
2022/01/10 12:13:15;;;;;;;12.63;6.57;;;6.70;99.90;;;;;;4972178;28;20282;-89
2022/01/10 12:15:41;;;;;;;8.23;5.60;;;6.70;99.90;;;;;;4989906;28;20184;-89
2022/01/10 12:18:08;;;;;;;7.17;5.83;;;6.80;99.90;;;;;;4957634;28;20712;-90
2022/01/10 12:20:34;;;;;;;8.97;6.63;;;6.80;99.90;;;;;;4972973;28;20242;-90
2022/01/10 12:23:00;;;;;;;9.80;7.93;;;6.80;99.90;;;;;;4973325;28;20220;-90
2022/01/10 12:25:27;;;;;;;7.80;6.27;;;6.90;99.90;;;;;;4956841;28;20220;-90
2022/01/10 12:27:54;;;;;;;9.83;7.90;;;7.00;99.90;;;;;;4974196;28;20416;-90
2022/01/10 12:30:21;;;;;;;9.93;6.83;;;7.00;99.90;;;;;;4988741;28;20362;-90
2022/01/10 12:32:48;;;;;;;7.30;6.67;;;7.00;99.90;;;;;;4972933;28;20220;-92
2022/01/10 12:35:15;;;;;;;8.17;7.37;;;7.10;99.90;;;;;;4972711;28;20211;-90
2022/01/10 12:37:41;;;;;;;7.67;6.87;;;7.20;99.90;;;;;;4973152;28;20656;-90
2022/01/10 12:40:10;;;;;;;7.40;5.83;;;7.30;99.90;;;;;;4974019;28;20242;-90
2022/01/10 12:42:36;;;;;;;9.30;6.73;;;7.40;99.90;;;;;;4972770;28;20269;-90
2022/01/10 12:45:04;;;;;;;10.87;7.60;;;7.40;99.90;;;;;;4985893;28;20223;-89
2022/01/10 12:47:30;;;;;;;10.90;7.80;;;7.40;99.90;;;;;;4972634;28;20244;-90
2022/01/10 12:49:56;;;;;;;6.17;5.23;;;7.40;99.90;;;;;;4957306;28;20220;-90
2022/01/10 12:52:22;;;;;;;7.30;6.50;;;7.50;99.90;;;;;;4972371;28;20192;-90
2022/01/10 12:54:49;;;;;;;8.00;6.40;;;7.60;99.90;;;;;;4989598;28;20204;-90
2022/01/10 12:57:15;;;;;;;9.83;7.70;;;7.70;99.90;;;;;;4973443;28;20700;-90
2022/01/10 12:59:41;;;;;;;8.07;7.33;;;7.80;99.90;;;;;;4956807;28;20236;-90
2022/01/10 13:02:07;;;;;;;8.50;6.67;;;7.80;99.90;;;;;;4971876;28;20307;-90
2022/01/10 13:04:36;;;;;;;10.57;8.67;;;8.00;99.90;;;;;;4971502;28;20224;-90